Time;durP1;ratioP1;P1;durP2;ratioP2;P2;SDS_P1;SDS_P2;PMS_P1;PMS_P2;Temp;Humidity;BMP_temperature;BMP_pressure;BME280_temperature;BME280_humidity;BME280_pressure;Samples;Min_cycle;Max_cycle;Signal;HPM_P1;HPM_P2
2021/07/27 00:00:06;;;;;;;7.75;4.93;;;;;;;;;;4962318;28;20052;-78
2021/07/27 00:02:33;;;;;;;8.82;5.55;;;;;;;;;;4965884;28;20051;-78
2021/07/27 00:05:01;;;;;;;8.60;4.78;;;;;;;;;;4964815;28;20047;-78
2021/07/27 00:07:27;;;;;;;9.48;4.85;;;;;;;;;;4965939;28;20047;-78
2021/07/27 00:09:54;;;;;;;8.75;5.78;;;;;;;;;;4965818;28;20047;-78
2021/07/27 00:12:21;;;;;;;9.00;5.45;;;;;;;;;;4965806;28;20098;-78
2021/07/27 00:14:47;;;;;;;10.55;6.22;;;;;;;;;;4965097;29;20081;-78
2021/07/27 00:17:14;;;;;;;10.65;6.80;;;;;;;;;;4965809;29;20114;-78
2021/07/27 00:19:41;;;;;;;11.73;8.32;;;;;;;;;;4964964;29;20082;-78
2021/07/27 00:22:09;;;;;;;12.32;8.45;;;;;;;;;;4964399;28;20081;-78
2021/07/27 00:24:35;;;;;;;12.07;8.07;;;;;;;;;;4963872;28;20075;-78
2021/07/27 00:27:02;;;;;;;12.98;6.97;;;;;;;;;;4964791;29;20051;-78
2021/07/27 00:29:29;;;;;;;10.48;6.90;;;;;;;;;;4964716;29;20081;-78
2021/07/27 00:31:56;;;;;;;9.45;6.18;;;;;;;;;;4964743;29;20083;-78
2021/07/27 00:34:22;;;;;;;8.88;5.82;;;;;;;;;;4964640;29;20054;-78
2021/07/27 00:36:49;;;;;;;7.60;5.18;;;;;;;;;;4964357;29;20098;-78
2021/07/27 00:39:17;;;;;;;9.20;5.50;;;;;;;;;;4965261;29;20063;-78
2021/07/27 00:41:44;;;;;;;8.30;5.35;;;;;;;;;;4964803;29;20047;-78
2021/07/27 00:44:10;;;;;;;8.60;4.90;;;;;;;;;;4964583;29;20054;-78
2021/07/27 00:46:37;;;;;;;8.50;5.03;;;;;;;;;;4964699;29;20489;-78
2021/07/27 00:49:04;;;;;;;7.15;5.00;;;;;;;;;;4964314;29;20090;-77
2021/07/27 00:51:31;;;;;;;9.52;5.05;;;;;;;;;;4964126;29;20047;-78
2021/07/27 00:53:58;;;;;;;7.85;4.60;;;;;;;;;;4958946;29;20082;-79
2021/07/27 00:56:27;;;;;;;7.70;4.93;;;;;;;;;;4966822;29;20051;-78
2021/07/27 00:58:53;;;;;;;7.35;4.90;;;;;;;;;;4974663;29;20047;-78
2021/07/27 01:01:21;;;;;;;8.82;5.60;;;;;;;;;;4975735;29;20051;-80
2021/07/27 01:03:47;;;;;;;12.00;5.57;;;;;;;;;;4975205;29;20048;-77
2021/07/27 01:06:14;;;;;;;12.13;6.93;;;;;;;;;;4975795;29;20051;-78
2021/07/27 01:08:41;;;;;;;8.88;5.78;;;;;;;;;;4971880;29;20070;-78
2021/07/27 01:11:08;;;;;;;11.50;6.95;;;;;;;;;;4960451;28;20060;-78
2021/07/27 01:13:36;;;;;;;10.90;6.60;;;;;;;;;;4959192;29;20079;-79
2021/07/27 01:16:06;;;;;;;11.63;6.40;;;;;;;;;;4957730;28;20079;-78
2021/07/27 01:18:39;;;;;;;10.45;6.35;;;;;;;;;;4957196;28;20448;-78
2021/07/27 01:37:43;;;;;;;13.68;7.72;;;;;;;;;;4979094;28;20082;-82
2021/07/27 01:40:16;;;;;;;12.05;7.28;;;;;;;;;;4985361;28;20081;-81
2021/07/27 01:42:42;;;;;;;12.60;7.78;;;;;;;;;;4990284;28;20059;-81
2021/07/27 01:45:21;;;;;;;10.48;7.22;;;;;;;;;;4987146;28;20047;-82
2021/07/27 01:47:48;;;;;;;9.65;6.43;;;;;;;;;;4986554;28;20551;-81
2021/07/27 01:50:16;;;;;;;12.13;6.57;;;;;;;;;;4986209;28;20054;-83
2021/07/27 01:52:47;;;;;;;8.68;5.45;;;;;;;;;;4985925;28;20403;-82
2021/07/27 01:55:19;;;;;;;11.07;6.85;;;;;;;;;;4984571;28;20047;-82
2021/07/27 01:57:46;;;;;;;11.10;7.13;;;;;;;;;;4985171;28;20053;-82
2021/07/27 02:00:13;;;;;;;10.68;7.35;;;;;;;;;;4981470;28;20460;-83
2021/07/27 02:02:40;;;;;;;11.48;7.10;;;;;;;;;;4960372;28;20051;-82
2021/07/27 02:05:11;;;;;;;11.95;7.57;;;;;;;;;;4958781;28;20056;-82
2021/07/27 02:07:38;;;;;;;11.05;7.20;;;;;;;;;;4960114;28;20051;-81
2021/07/27 02:10:10;;;;;;;10.80;6.70;;;;;;;;;;4959221;28;20617;-82
2021/07/27 02:12:48;;;;;;;10.43;6.57;;;;;;;;;;4958500;28;20134;-82
2021/07/27 02:15:39;;;;;;;9.25;5.68;;;;;;;;;;4958611;28;20047;-82
2021/07/27 02:18:06;;;;;;;9.45;5.75;;;;;;;;;;4952536;28;20082;-82
2021/07/27 02:20:32;;;;;;;9.80;5.78;;;;;;;;;;4960420;28;20051;-83
2021/07/27 02:22:59;;;;;;;9.13;5.95;;;;;;;;;;4959234;28;20102;-83
2021/07/27 02:25:26;;;;;;;11.52;6.78;;;;;;;;;;4959787;28;20051;-83
2021/07/27 02:27:54;;;;;;;11.35;6.93;;;;;;;;;;4960704;28;20051;-83
2021/07/27 02:30:21;;;;;;;12.77;6.70;;;;;;;;;;4959309;28;20109;-83
2021/07/27 02:32:48;;;;;;;9.40;5.75;;;;;;;;;;4960181;28;20130;-82
2021/07/27 02:35:15;;;;;;;8.65;5.72;;;;;;;;;;4959065;28;20051;-84
2021/07/27 02:37:42;;;;;;;9.73;5.50;;;;;;;;;;4961785;28;20077;-83
2021/07/27 02:40:10;;;;;;;8.23;4.90;;;;;;;;;;4960267;28;20500;-83
2021/07/27 02:42:37;;;;;;;8.95;5.10;;;;;;;;;;4958944;28;20047;-83
2021/07/27 02:45:06;;;;;;;6.90;4.72;;;;;;;;;;4958768;28;20508;-82
2021/07/27 02:47:34;;;;;;;10.02;6.20;;;;;;;;;;4958945;28;20102;-83
2021/07/27 02:50:00;;;;;;;12.55;6.72;;;;;;;;;;4957764;28;20082;-82
2021/07/27 02:52:27;;;;;;;14.48;8.73;;;;;;;;;;4957781;28;20110;-82
2021/07/27 02:54:54;;;;;;;11.73;7.10;;;;;;;;;;4957322;28;20091;-82
2021/07/27 02:57:21;;;;;;;12.10;7.65;;;;;;;;;;4958663;28;20082;-83
2021/07/27 02:59:47;;;;;;;13.13;8.02;;;;;;;;;;4959760;28;20083;-82
2021/07/27 03:02:16;;;;;;;11.70;7.50;;;;;;;;;;4960145;28;20044;-82
2021/07/27 03:04:43;;;;;;;12.80;7.45;;;;;;;;;;4959325;28;20067;-82
2021/07/27 03:07:10;;;;;;;12.82;7.85;;;;;;;;;;4959119;29;20051;-82
2021/07/27 03:10:16;;;;;;;11.02;7.05;;;;;;;;;;4959226;29;20497;-82
2021/07/27 03:12:24;;;;;;;14.77;8.73;;;;;;;;;;4959100;29;20137;-83
2021/07/27 03:14:51;;;;;;;14.38;8.45;;;;;;;;;;4958879;28;20079;-82
2021/07/27 03:17:19;;;;;;;14.05;7.97;;;;;;;;;;4959427;29;20043;-82
2021/07/27 03:19:46;;;;;;;12.57;8.00;;;;;;;;;;4959027;29;20039;-82
2021/07/27 03:22:12;;;;;;;14.35;8.20;;;;;;;;;;4961493;29;20051;-82
2021/07/27 03:24:39;;;;;;;13.48;8.63;;;;;;;;;;4967347;29;20071;-82
2021/07/27 03:27:06;;;;;;;13.10;7.53;;;;;;;;;;4961812;29;20052;-82
2021/07/27 03:29:32;;;;;;;12.73;7.97;;;;;;;;;;4960795;29;20051;-82
2021/07/27 03:31:59;;;;;;;12.95;8.45;;;;;;;;;;4964092;29;20056;-82
2021/07/27 03:34:27;;;;;;;13.95;8.50;;;;;;;;;;4961302;28;20059;-82
2021/07/27 03:36:54;;;;;;;10.90;7.18;;;;;;;;;;4972952;28;20039;-83
2021/07/27 03:39:21;;;;;;;10.57;6.80;;;;;;;;;;4983632;28;20039;-81
2021/07/27 03:41:47;;;;;;;10.10;6.40;;;;;;;;;;4983438;28;20267;-81
2021/07/27 03:44:16;;;;;;;8.82;5.50;;;;;;;;;;4983337;28;20424;-81
2021/07/27 03:46:52;;;;;;;9.32;5.55;;;;;;;;;;4982844;28;20050;-81
2021/07/27 03:49:19;;;;;;;8.88;5.45;;;;;;;;;;4974810;29;20499;-82
2021/07/27 03:51:47;;;;;;;9.57;5.95;;;;;;;;;;4963452;29;20058;-82
2021/07/27 03:54:14;;;;;;;10.20;6.20;;;;;;;;;;4970414;29;20070;-82
2021/07/27 03:56:41;;;;;;;11.52;7.22;;;;;;;;;;4963131;29;20461;-82
2021/07/27 03:59:08;;;;;;;17.83;11.90;;;;;;;;;;4959655;29;20082;-82
2021/07/27 04:01:34;;;;;;;20.63;13.13;;;;;;;;;;4961660;28;20055;-82
2021/07/27 04:04:01;;;;;;;16.13;9.20;;;;;;;;;;4961101;28;20047;-82
2021/07/27 04:06:28;;;;;;;16.45;10.07;;;;;;;;;;4959881;28;20099;-82
2021/07/27 04:08:59;;;;;;;13.55;8.57;;;;;;;;;;4960417;28;20051;-82
2021/07/27 04:11:25;;;;;;;10.50;7.03;;;;;;;;;;4961539;29;20091;-81
2021/07/27 04:13:52;;;;;;;14.38;7.32;;;;;;;;;;4961231;28;20122;-81
2021/07/27 04:16:19;;;;;;;12.77;7.90;;;;;;;;;;4960550;28;20047;-81
2021/07/27 04:18:46;;;;;;;12.38;7.35;;;;;;;;;;4963656;28;20078;-81
2021/07/27 04:21:13;;;;;;;14.02;7.80;;;;;;;;;;4960574;28;20070;-81
2021/07/27 04:23:40;;;;;;;11.15;7.53;;;;;;;;;;4958415;28;20556;-81
2021/07/27 04:26:10;;;;;;;13.02;8.18;;;;;;;;;;4958287;28;20114;-80
2021/07/27 04:28:37;;;;;;;;;;;;;;;;;;4959909;28;20515;-80
2021/07/27 04:31:03;;;;;;;18.65;13.25;;;;;;;;;;4960486;29;20326;-81
2021/07/27 04:33:39;;;;;;;23.45;15.82;;;;;;;;;;4958889;29;20082;-81
2021/07/27 04:36:06;;;;;;;20.60;14.18;;;;;;;;;;4965356;28;20055;-82
2021/07/27 04:38:33;;;;;;;11.23;7.53;;;;;;;;;;4967402;29;20051;-82
2021/07/27 04:40:59;;;;;;;11.10;6.72;;;;;;;;;;4969064;28;20055;-81
2021/07/27 04:43:28;;;;;;;10.50;6.25;;;;;;;;;;4967362;28;20071;-82
2021/07/27 04:45:55;;;;;;;11.40;7.43;;;;;;;;;;4966966;28;20043;-81
2021/07/27 04:48:22;;;;;;;13.80;7.82;;;;;;;;;;4966932;28;20051;-81
2021/07/27 04:50:49;;;;;;;10.05;6.68;;;;;;;;;;4963245;28;20047;-82
2021/07/27 04:53:21;;;;;;;12.90;6.95;;;;;;;;;;4961176;28;20051;-82
2021/07/27 04:55:48;;;;;;;8.98;5.85;;;;;;;;;;4960667;28;20110;-82
2021/07/27 04:58:15;;;;;;;10.70;6.22;;;;;;;;;;4960815;28;20098;-82
2021/07/27 05:00:43;;;;;;;8.10;5.40;;;;;;;;;;4960647;28;20074;-82
2021/07/27 05:03:10;;;;;;;9.52;5.50;;;;;;;;;;4960853;29;20075;-81
2021/07/27 05:05:37;;;;;;;9.43;5.82;;;;;;;;;;4961527;29;20047;-82
2021/07/27 05:08:04;;;;;;;7.57;5.05;;;;;;;;;;4961448;29;20492;-83
2021/07/27 05:10:31;;;;;;;10.23;5.78;;;;;;;;;;4962509;29;20055;-83
2021/07/27 05:12:58;;;;;;;8.48;5.70;;;;;;;;;;4961087;29;20051;-83
2021/07/27 05:15:25;;;;;;;9.18;5.25;;;;;;;;;;4960138;29;20059;-83
2021/07/27 05:17:53;;;;;;;10.05;6.63;;;;;;;;;;4960239;29;20047;-83
2021/07/27 05:20:20;;;;;;;14.80;7.13;;;;;;;;;;4960713;29;20079;-82
2021/07/27 05:22:47;;;;;;;10.52;7.03;;;;;;;;;;4960762;28;20058;-83
2021/07/27 05:25:13;;;;;;;10.45;5.85;;;;;;;;;;4959591;29;20089;-83
2021/07/27 05:27:40;;;;;;;12.32;7.22;;;;;;;;;;4959338;29;20055;-83
2021/07/27 05:30:07;;;;;;;13.05;7.20;;;;;;;;;;4960030;29;20075;-83
2021/07/27 05:32:34;;;;;;;11.05;7.03;;;;;;;;;;4960727;29;20070;-82
2021/07/27 05:35:02;;;;;;;9.13;5.88;;;;;;;;;;4959419;29;20106;-82
2021/07/27 05:37:28;;;;;;;10.20;6.25;;;;;;;;;;4966529;28;20047;-81
2021/07/27 05:39:55;;;;;;;9.32;6.45;;;;;;;;;;4974468;29;20043;-81
2021/07/27 05:42:22;;;;;;;9.85;6.40;;;;;;;;;;4981074;28;20047;-81
2021/07/27 05:44:49;;;;;;;11.43;7.68;;;;;;;;;;4980753;28;20039;-81
2021/07/27 05:47:16;;;;;;;10.90;6.57;;;;;;;;;;4980687;28;20031;-81
2021/07/27 05:49:43;;;;;;;10.40;6.60;;;;;;;;;;4972574;28;20393;-82
2021/07/27 05:52:13;;;;;;;9.02;6.03;;;;;;;;;;4958274;29;20047;-82
2021/07/27 05:54:39;;;;;;;8.70;5.80;;;;;;;;;;4957685;29;20083;-82
2021/07/27 05:57:10;;;;;;;9.35;5.88;;;;;;;;;;4957294;28;20083;-82
2021/07/27 05:59:37;;;;;;;9.02;5.85;;;;;;;;;;4957166;28;20480;-82
2021/07/27 06:02:04;;;;;;;11.07;6.90;;;;;;;;;;4961333;29;20051;-83
2021/07/27 06:04:31;;;;;;;8.43;5.18;;;;;;;;;;4959843;29;20500;-83
2021/07/27 06:06:57;;;;;;;9.25;5.55;;;;;;;;;;4960431;29;20091;-82
2021/07/27 06:09:26;;;;;;;8.00;5.30;;;;;;;;;;4961364;29;20472;-82
2021/07/27 06:11:52;;;;;;;8.20;5.72;;;;;;;;;;4961048;29;20066;-83
2021/07/27 06:14:19;;;;;;;9.07;5.47;;;;;;;;;;4957828;29;20098;-82
2021/07/27 06:16:46;;;;;;;7.93;5.25;;;;;;;;;;4958525;28;20083;-82
2021/07/27 06:19:12;;;;;;;9.50;5.20;;;;;;;;;;4958379;29;20051;-82
2021/07/27 06:21:41;;;;;;;7.45;5.32;;;;;;;;;;4958049;28;20051;-82
2021/07/27 06:24:08;;;;;;;10.15;6.07;;;;;;;;;;4958868;29;20051;-82
2021/07/27 06:26:37;;;;;;;8.55;5.43;;;;;;;;;;4957896;29;20079;-82
2021/07/27 06:29:05;;;;;;;9.52;5.70;;;;;;;;;;4958559;29;20082;-82
2021/07/27 06:31:32;;;;;;;8.38;5.15;;;;;;;;;;4958132;29;20090;-82
2021/07/27 06:33:59;;;;;;;10.63;5.80;;;;;;;;;;4957611;29;20094;-82
2021/07/27 06:36:27;;;;;;;9.98;6.00;;;;;;;;;;4957580;29;20078;-82
2021/07/27 06:39:09;;;;;;;10.32;6.43;;;;;;;;;;4958701;29;20083;-82
2021/07/27 06:41:37;;;;;;;9.05;5.72;;;;;;;;;;4958070;28;20082;-82
2021/07/27 06:44:04;;;;;;;9.15;5.80;;;;;;;;;;4960267;29;20098;-84
2021/07/27 06:46:32;;;;;;;10.82;6.22;;;;;;;;;;4958113;29;20087;-82
2021/07/27 06:48:59;;;;;;;9.77;5.88;;;;;;;;;;4958556;29;20126;-82
2021/07/27 06:51:26;;;;;;;9.60;5.63;;;;;;;;;;4957897;29;20043;-83
2021/07/27 06:53:52;;;;;;;8.02;5.57;;;;;;;;;;4958423;29;20083;-83
2021/07/27 06:56:19;;;;;;;12.13;6.10;;;;;;;;;;4957916;28;20134;-82
2021/07/27 06:58:47;;;;;;;10.90;5.53;;;;;;;;;;4957909;29;20089;-82
2021/07/27 07:01:14;;;;;;;10.35;5.72;;;;;;;;;;4958864;29;20472;-83
2021/07/27 07:03:42;;;;;;;8.88;5.63;;;;;;;;;;4959287;28;20073;-81
2021/07/27 07:06:12;;;;;;;8.68;5.70;;;;;;;;;;4957425;28;20094;-83
2021/07/27 07:08:41;;;;;;;10.45;5.32;;;;;;;;;;4956217;28;20051;-83
2021/07/27 07:11:10;;;;;;;10.10;6.03;;;;;;;;;;4956277;29;20046;-83
2021/07/27 07:13:37;;;;;;;11.55;5.88;;;;;;;;;;4957655;28;20943;-83
2021/07/27 07:16:09;;;;;;;8.77;5.25;;;;;;;;;;4949775;28;20436;-84
2021/07/27 07:18:36;;;;;;;9.10;5.25;;;;;;;;;;4958831;28;20117;-84
2021/07/27 07:21:04;;;;;;;11.23;6.30;;;;;;;;;;4947979;28;20051;-83
2021/07/27 07:23:31;;;;;;;10.13;5.60;;;;;;;;;;4952447;29;20090;-84
2021/07/27 07:25:57;;;;;;;8.60;5.72;;;;;;;;;;4959764;28;20047;-83
2021/07/27 07:28:24;;;;;;;10.18;6.00;;;;;;;;;;4948758;28;20107;-83
2021/07/27 07:30:51;;;;;;;9.63;5.88;;;;;;;;;;4959716;28;20057;-84
2021/07/27 07:33:19;;;;;;;9.45;5.60;;;;;;;;;;4959938;28;20279;-84
2021/07/27 07:35:46;;;;;;;10.88;6.38;;;;;;;;;;4977885;23;20075;-77
2021/07/27 07:38:12;;;;;;;10.32;5.72;;;;;;;;;;4958505;28;20062;-80
2021/07/27 07:40:39;;;;;;;10.85;5.82;;;;;;;;;;4960540;29;20071;-80
2021/07/27 07:43:06;;;;;;;9.07;5.82;;;;;;;;;;4961444;29;20064;-80
2021/07/27 07:45:33;;;;;;;14.85;8.50;;;;;;;;;;4957418;29;20404;-78
2021/07/27 07:47:59;;;;;;;9.57;6.32;;;;;;;;;;4939898;29;20052;-79
2021/07/27 07:50:29;;;;;;;10.88;6.18;;;;;;;;;;4939685;29;20052;-77
2021/07/27 07:52:59;;;;;;;8.47;5.63;;;;;;;;;;4957335;29;20483;-77
2021/07/27 07:55:26;;;;;;;;;;;;;;;;;;4971713;29;20094;-77
2021/07/27 07:57:53;;;;;;;11.10;6.38;;;;;;;;;;4971743;29;19939;-77
2021/07/27 08:00:20;;;;;;;13.10;7.72;;;;;;;;;;4970286;29;20053;-77
2021/07/27 08:02:47;;;;;;;9.20;6.32;;;;;;;;;;4950628;29;20116;-77
2021/07/27 08:05:13;;;;;;;8.77;5.55;;;;;;;;;;4943953;29;20048;-78
2021/07/27 08:07:42;;;;;;;7.80;4.90;;;;;;;;;;4939620;29;20428;-78
2021/07/27 08:10:09;;;;;;;10.88;6.50;;;;;;;;;;4961222;29;20055;-77
2021/07/27 08:12:36;;;;;;;9.57;5.53;;;;;;;;;;4959189;29;20048;-76
2021/07/27 08:15:03;;;;;;;8.88;5.47;;;;;;;;;;4956345;29;20083;-77
2021/07/27 08:17:30;;;;;;;8.27;5.63;;;;;;;;;;4958071;29;20043;-77
2021/07/27 08:19:57;;;;;;;9.30;5.35;;;;;;;;;;4955969;29;20047;-77
2021/07/27 08:22:23;;;;;;;12.00;5.82;;;;;;;;;;4961699;28;20055;-78
2021/07/27 08:24:51;;;;;;;10.95;6.70;;;;;;;;;;4964899;29;20047;-79
2021/07/27 08:27:18;;;;;;;10.95;5.85;;;;;;;;;;4961962;28;20067;-77
2021/07/27 08:29:45;;;;;;;9.55;5.75;;;;;;;;;;4961132;29;20618;-78
2021/07/27 08:32:12;;;;;;;9.73;5.80;;;;;;;;;;4960586;29;20082;-78
2021/07/27 08:34:42;;;;;;;9.00;5.68;;;;;;;;;;4957930;29;20083;-78
2021/07/27 08:37:09;;;;;;;9.55;5.78;;;;;;;;;;4960265;29;20047;-77
2021/07/27 08:39:36;;;;;;;10.25;6.05;;;;;;;;;;4959570;29;20074;-78
2021/07/27 08:42:06;;;;;;;9.00;6.10;;;;;;;;;;4960849;29;20055;-78
2021/07/27 08:44:34;;;;;;;9.30;5.93;;;;;;;;;;4960444;29;20055;-78
2021/07/27 08:47:01;;;;;;;9.88;6.43;;;;;;;;;;4960133;28;20122;-78
2021/07/27 08:49:30;;;;;;;9.27;6.50;;;;;;;;;;4965240;29;20059;-79
2021/07/27 08:51:57;;;;;;;10.93;6.60;;;;;;;;;;4963079;29;20058;-77
2021/07/27 08:54:24;;;;;;;11.15;6.47;;;;;;;;;;4960649;29;20637;-78
2021/07/27 08:56:52;;;;;;;8.02;5.90;;;;;;;;;;4961596;29;20090;-78
2021/07/27 08:59:23;;;;;;;10.50;7.20;;;;;;;;;;4964469;29;20497;-78
2021/07/27 09:01:52;;;;;;;11.35;6.53;;;;;;;;;;4962027;29;20152;-77
2021/07/27 09:04:27;;;;;;;10.05;6.25;;;;;;;;;;4960531;29;20075;-78
2021/07/27 09:06:58;;;;;;;9.27;5.63;;;;;;;;;;4960408;29;20043;-78
2021/07/27 09:09:29;;;;;;;10.98;6.15;;;;;;;;;;4963479;29;20074;-78
2021/07/27 09:11:57;;;;;;;10.45;5.78;;;;;;;;;;4960278;29;20118;-79
2021/07/27 09:14:25;;;;;;;11.40;6.22;;;;;;;;;;4960073;29;20055;-78
2021/07/27 09:16:53;;;;;;;10.57;6.18;;;;;;;;;;4959368;29;20505;-78
2021/07/27 09:19:20;;;;;;;11.05;6.40;;;;;;;;;;4960062;29;20055;-78
2021/07/27 09:21:47;;;;;;;11.70;8.38;;;;;;;;;;4960081;29;20075;-78
2021/07/27 09:24:24;;;;;;;14.73;11.80;;;;;;;;;;4960825;29;20489;-78
2021/07/27 09:26:58;;;;;;;9.75;6.68;;;;;;;;;;4962331;29;20053;-79
2021/07/27 09:29:28;;;;;;;10.27;6.70;;;;;;;;;;4961355;29;20043;-78
2021/07/27 09:31:56;;;;;;;11.98;7.35;;;;;;;;;;4963788;29;20051;-79
2021/07/27 09:34:24;;;;;;;9.13;6.03;;;;;;;;;;4964285;28;20074;-79
2021/07/27 09:37:00;;;;;;;11.50;6.93;;;;;;;;;;4959351;29;20059;-78
2021/07/27 09:39:27;;;;;;;10.45;6.93;;;;;;;;;;4961860;28;20047;-78
2021/07/27 09:41:59;;;;;;;9.77;6.82;;;;;;;;;;4961462;28;20051;-78
2021/07/27 09:44:29;;;;;;;9.18;6.05;;;;;;;;;;4960825;29;20071;-78
2021/07/27 09:46:57;;;;;;;9.95;6.32;;;;;;;;;;4959690;28;20086;-78
2021/07/27 09:49:24;;;;;;;8.57;5.65;;;;;;;;;;4963599;29;20051;-77
2021/07/27 09:51:52;;;;;;;10.10;5.90;;;;;;;;;;4962106;29;20055;-78
2021/07/27 09:54:19;;;;;;;10.07;6.50;;;;;;;;;;4964489;29;20055;-79
2021/07/27 09:56:46;;;;;;;10.18;6.50;;;;;;;;;;4960469;29;20106;-77
2021/07/27 09:59:15;;;;;;;8.80;5.97;;;;;;;;;;4958777;29;20051;-78
2021/07/27 10:01:48;;;;;;;9.43;6.25;;;;;;;;;;4959580;29;20118;-78
2021/07/27 10:04:21;;;;;;;10.52;6.43;;;;;;;;;;4959089;28;20054;-77
2021/07/27 10:06:49;;;;;;;9.55;7.18;;;;;;;;;;4960344;28;20095;-78
2021/07/27 10:09:24;;;;;;;11.32;6.60;;;;;;;;;;4958060;28;20101;-78
2021/07/27 10:11:50;;;;;;;9.40;6.47;;;;;;;;;;4957943;28;20053;-78
2021/07/27 10:14:18;;;;;;;10.27;6.75;;;;;;;;;;4958893;29;20079;-78
2021/07/27 10:16:48;;;;;;;9.52;6.20;;;;;;;;;;4958560;28;20051;-78
2021/07/27 10:19:16;;;;;;;11.30;6.15;;;;;;;;;;4959455;29;20055;-77
2021/07/27 10:21:43;;;;;;;9.77;6.13;;;;;;;;;;4960880;29;20453;-79
2021/07/27 10:24:12;;;;;;;12.20;7.40;;;;;;;;;;4962420;29;20130;-78
2021/07/27 10:26:39;;;;;;;10.80;6.63;;;;;;;;;;4959151;28;20047;-78
2021/07/27 10:29:06;;;;;;;9.60;6.35;;;;;;;;;;4963392;29;20047;-78
2021/07/27 10:31:35;;;;;;;10.20;6.72;;;;;;;;;;4963823;29;20047;-78
2021/07/27 10:34:04;;;;;;;10.27;7.07;;;;;;;;;;4960071;28;20043;-78
2021/07/27 10:36:34;;;;;;;13.75;9.68;;;;;;;;;;4956945;29;20043;-77
2021/07/27 10:39:08;;;;;;;22.00;14.38;;;;;;;;;;4958946;29;20051;-79
2021/07/27 10:41:37;;;;;;;28.08;10.95;;;;;;;;;;4960294;29;20058;-76
2021/07/27 10:44:08;;;;;;;19.02;9.48;;;;;;;;;;4955381;28;20047;-77
2021/07/27 10:46:44;;;;;;;17.50;8.63;;;;;;;;;;4954946;29;20547;-78
2021/07/27 10:49:24;;;;;;;7.88;5.70;;;;;;;;;;4958005;28;20075;-78
2021/07/27 10:51:51;;;;;;;;;;;;;;;;;;4957378;29;20051;-77
2021/07/27 10:54:25;;;;;;;12.73;7.05;;;;;;;;;;4956898;29;19922;-78
2021/07/27 10:57:00;;;;;;;14.13;6.72;;;;;;;;;;4956735;29;20051;-77
2021/07/27 10:59:30;;;;;;;11.10;6.82;;;;;;;;;;4957769;29;20118;-79
2021/07/27 11:01:58;;;;;;;10.00;5.82;;;;;;;;;;4961281;29;20051;-76
2021/07/27 11:04:29;;;;;;;11.40;7.18;;;;;;;;;;4958254;28;20587;-78
2021/07/27 11:07:12;;;;;;;9.77;6.13;;;;;;;;;;4955836;28;20082;-77
2021/07/27 11:09:49;;;;;;;9.63;6.30;;;;;;;;;;4955355;28;20609;-77
2021/07/27 11:12:30;;;;;;;11.20;6.18;;;;;;;;;;4957104;28;20082;-76
2021/07/27 11:15:10;;;;;;;15.77;11.60;;;;;;;;;;4955702;28;20065;-77
2021/07/27 11:17:38;;;;;;;11.77;7.22;;;;;;;;;;4953394;28;20516;-76
2021/07/27 11:20:08;;;;;;;15.27;9.57;;;;;;;;;;4955440;29;20073;-77
2021/07/27 11:22:35;;;;;;;13.18;8.93;;;;;;;;;;4956706;28;20061;-78
2021/07/27 11:25:02;;;;;;;12.48;7.35;;;;;;;;;;4957559;29;20090;-78
2021/07/27 11:27:29;;;;;;;23.15;20.85;;;;;;;;;;4957503;29;20074;-77
2021/07/27 11:29:57;;;;;;;10.13;6.75;;;;;;;;;;4957301;29;20075;-78
2021/07/27 11:32:26;;;;;;;13.05;6.32;;;;;;;;;;4956998;29;20047;-79
2021/07/27 11:34:57;;;;;;;10.52;6.05;;;;;;;;;;4957545;29;20619;-78
2021/07/27 11:37:28;;;;;;;8.10;5.47;;;;;;;;;;4958033;28;20054;-77
2021/07/27 11:39:56;;;;;;;10.10;6.05;;;;;;;;;;4957480;28;20074;-78
2021/07/27 11:42:30;;;;;;;11.02;7.53;;;;;;;;;;4957408;29;20086;-80
2021/07/27 11:44:59;;;;;;;10.50;7.88;;;;;;;;;;4955899;29;20047;-76
2021/07/27 11:47:26;;;;;;;9.75;6.93;;;;;;;;;;4956736;29;20054;-78
2021/07/27 11:49:56;;;;;;;11.07;7.22;;;;;;;;;;4957802;29;20055;-78
2021/07/27 11:52:27;;;;;;;10.77;6.60;;;;;;;;;;4956810;29;20058;-78
2021/07/27 11:55:02;;;;;;;9.23;5.97;;;;;;;;;;4956956;29;20538;-78
2021/07/27 11:57:29;;;;;;;10.80;6.53;;;;;;;;;;4959489;28;20070;-78
2021/07/27 12:00:09;;;;;;;11.00;6.85;;;;;;;;;;4961013;29;20055;-77
2021/07/27 12:02:36;;;;;;;9.63;6.65;;;;;;;;;;4960036;29;20047;-78
2021/07/27 12:05:03;;;;;;;12.20;6.97;;;;;;;;;;4960065;29;20059;-78
2021/07/27 12:07:30;;;;;;;10.98;7.05;;;;;;;;;;4960142;29;20051;-78
2021/07/27 12:09:56;;;;;;;9.45;5.90;;;;;;;;;;4960391;29;20114;-77
2021/07/27 12:12:25;;;;;;;10.25;5.63;;;;;;;;;;4957446;29;20083;-79
2021/07/27 12:14:51;;;;;;;10.75;6.38;;;;;;;;;;4959794;28;20039;-76
2021/07/27 12:17:18;;;;;;;10.73;7.10;;;;;;;;;;4959377;29;20083;-77
2021/07/27 12:19:45;;;;;;;11.30;7.35;;;;;;;;;;4956019;28;20141;-77
2021/07/27 12:22:12;;;;;;;11.68;7.25;;;;;;;;;;4958762;29;20114;-77
2021/07/27 12:24:38;;;;;;;9.02;6.40;;;;;;;;;;4956326;29;20133;-76
2021/07/27 12:27:05;;;;;;;10.15;6.35;;;;;;;;;;4959312;29;20528;-78
2021/07/27 12:29:43;;;;;;;11.82;6.20;;;;;;;;;;4959223;28;20052;-78
2021/07/27 12:34:59;;;;;;;9.63;5.90;;;;;;;;;;4964200;28;20063;-79
2021/07/27 12:37:34;;;;;;;9.27;6.15;;;;;;;;;;4963512;29;20483;-78
2021/07/27 12:40:00;;;;;;;8.80;5.90;;;;;;;;;;4964701;29;20055;-78
2021/07/27 12:42:27;;;;;;;8.68;6.30;;;;;;;;;;4962314;29;20083;-78
2021/07/27 12:44:55;;;;;;;9.23;5.82;;;;;;;;;;4960368;29;20564;-78
2021/07/27 12:47:22;;;;;;;8.93;6.15;;;;;;;;;;4961008;28;20090;-78
2021/07/27 12:49:49;;;;;;;10.52;5.93;;;;;;;;;;4960941;29;20047;-77
2021/07/27 12:52:18;;;;;;;7.95;5.35;;;;;;;;;;4962855;29;20051;-78
2021/07/27 12:54:45;;;;;;;10.13;6.65;;;;;;;;;;4960040;29;20083;-77
2021/07/27 12:57:13;;;;;;;9.30;4.82;;;;;;;;;;4963108;29;20043;-78
2021/07/27 12:59:41;;;;;;;7.93;4.93;;;;;;;;;;4958029;29;20054;-77
2021/07/27 13:02:10;;;;;;;8.05;5.43;;;;;;;;;;4959780;28;20053;-77
2021/07/27 13:04:37;;;;;;;7.40;5.20;;;;;;;;;;4960242;28;20223;-74
2021/07/27 13:07:05;;;;;;;9.15;5.28;;;;;;;;;;4959859;28;20051;-78
2021/07/27 13:09:31;;;;;;;9.15;5.72;;;;;;;;;;4959067;28;20094;-77
2021/07/27 13:11:58;;;;;;;10.13;6.03;;;;;;;;;;4959403;28;20047;-77
2021/07/27 13:14:25;;;;;;;9.73;5.57;;;;;;;;;;4958779;29;20079;-79
2021/07/27 13:16:52;;;;;;;7.82;5.60;;;;;;;;;;4958873;29;20412;-76
2021/07/27 13:19:20;;;;;;;8.93;5.60;;;;;;;;;;4961870;29;20063;-78
2021/07/27 13:21:46;;;;;;;7.32;5.55;;;;;;;;;;4959442;29;20051;-77
2021/07/27 13:24:13;;;;;;;9.57;5.35;;;;;;;;;;4961267;29;20094;-79
2021/07/27 13:26:40;;;;;;;7.53;5.43;;;;;;;;;;4960054;28;20047;-77
2021/07/27 13:29:06;;;;;;;9.68;5.45;;;;;;;;;;4957880;29;20083;-79
2021/07/27 13:31:33;;;;;;;7.28;5.50;;;;;;;;;;4962273;29;20416;-77
2021/07/27 13:34:00;;;;;;;8.50;5.72;;;;;;;;;;4959990;29;20051;-78
2021/07/27 13:36:28;;;;;;;8.45;5.43;;;;;;;;;;4985085;23;20038;-76
2021/07/27 13:38:54;;;;;;;6.85;5.55;;;;;;;;;;4973016;28;20062;-76
2021/07/27 13:41:21;;;;;;;9.25;5.72;;;;;;;;;;4973181;28;20094;-76
2021/07/27 13:43:48;;;;;;;9.05;5.32;;;;;;;;;;4973490;28;20050;-77
2021/07/27 13:46:15;;;;;;;6.93;5.05;;;;;;;;;;4972624;28;20537;-76
2021/07/27 13:48:41;;;;;;;7.50;5.30;;;;;;;;;;4973280;28;20051;-76
2021/07/27 13:51:08;;;;;;;7.57;5.30;;;;;;;;;;4972947;28;20075;-76
2021/07/27 13:53:36;;;;;;;8.32;5.72;;;;;;;;;;4972981;28;20427;-76
2021/07/27 13:56:03;;;;;;;9.18;7.03;;;;;;;;;;4953931;28;20043;-76
2021/07/27 13:58:30;;;;;;;7.75;5.50;;;;;;;;;;4953338;28;20078;-77
2021/07/27 14:00:57;;;;;;;7.22;5.45;;;;;;;;;;4953414;28;20047;-75
2021/07/27 14:03:24;;;;;;;8.48;5.15;;;;;;;;;;4951531;28;20055;-76
2021/07/27 14:05:51;;;;;;;7.68;5.53;;;;;;;;;;4952773;28;20158;-75
2021/07/27 14:08:17;;;;;;;9.90;6.18;;;;;;;;;;4952013;28;20078;-75
2021/07/27 14:10:46;;;;;;;8.70;5.28;;;;;;;;;;4953017;29;20075;-76
2021/07/27 14:13:12;;;;;;;8.07;5.00;;;;;;;;;;4962159;28;20079;-75
2021/07/27 14:15:40;;;;;;;9.40;5.43;;;;;;;;;;4975323;28;20048;-75
2021/07/27 14:18:07;;;;;;;9.82;6.22;;;;;;;;;;4973103;28;20047;-75
2021/07/27 14:20:35;;;;;;;11.85;5.60;;;;;;;;;;4970701;28;20061;-76
2021/07/27 14:23:01;;;;;;;7.65;5.28;;;;;;;;;;4960761;28;20113;-79
2021/07/27 14:25:28;;;;;;;9.23;5.40;;;;;;;;;;4958158;28;20059;-80
2021/07/27 14:27:56;;;;;;;8.38;5.68;;;;;;;;;;4956855;28;20086;-76
2021/07/27 14:30:23;;;;;;;9.55;6.80;;;;;;;;;;4952709;28;20055;-76
2021/07/27 14:32:50;;;;;;;12.73;7.78;;;;;;;;;;4952661;28;20086;-75
2021/07/27 14:35:17;;;;;;;8.65;5.82;;;;;;;;;;4952011;28;20055;-75
2021/07/27 14:37:46;;;;;;;8.23;5.72;;;;;;;;;;4952351;28;20694;-75
2021/07/27 14:40:15;;;;;;;13.73;11.05;;;;;;;;;;4952414;28;20086;-75
2021/07/27 14:42:42;;;;;;;8.88;5.68;;;;;;;;;;4952393;29;20047;-76
2021/07/27 14:45:10;;;;;;;7.60;5.22;;;;;;;;;;4952472;28;20051;-76
2021/07/27 14:47:38;;;;;;;7.82;5.95;;;;;;;;;;4952226;28;20099;-75
2021/07/27 14:50:06;;;;;;;8.43;5.18;;;;;;;;;;4952322;28;20047;-75
2021/07/27 14:52:33;;;;;;;8.07;5.07;;;;;;;;;;4952674;28;20079;-76
2021/07/27 14:54:59;;;;;;;6.70;4.80;;;;;;;;;;4952054;28;20047;-76
2021/07/27 14:57:26;;;;;;;8.65;5.25;;;;;;;;;;4952579;28;20500;-76
2021/07/27 14:59:53;;;;;;;7.38;5.18;;;;;;;;;;4951707;28;20090;-76